Flight Track Log - Related Links

Times and Time Zones

All times are in EDT time to prevent confusion due to time zone crossing. See the PTI567 flight status page for this flight to view local times or setup timezone preferences in your user account.

Time Position Orientation Groundspeed Altitude Reporting Facility
EDT Latitude Longitude Course Direction KTS MPH feet Rate Location/Type
Wed 06:05:00 PM 9.8412 0.4297 North  Level Estimated
Wed 06:06:00 PM 9.9527 0.4455 North  Level Estimated
Wed 06:07:00 PM 10.0641 0.4614 North  Level Estimated
Wed 06:08:00 PM 10.1756 0.4773 North  Level Estimated
Wed 06:09:00 PM 10.2870 0.4932 North  Level Estimated
Wed 06:10:00 PM 10.3985 0.5092 North  Level Estimated
Wed 06:11:00 PM 10.5099 0.5251 North  Level Estimated
Wed 06:12:00 PM 10.6214 0.5410 North  Level Estimated
Wed 06:13:00 PM 10.7329 0.5570 North  Level Estimated
Wed 06:14:00 PM 10.8443 0.5729 North  Level Estimated
Wed 06:15:00 PM 10.9558 0.5889 North  Level Estimated
Wed 06:16:00 PM 11.0672 0.6049 North  Level Estimated
Wed 06:17:00 PM 11.1787 0.6209 North  Level Estimated
Wed 06:18:00 PM 11.2901 0.6369 North  Level Estimated
Wed 06:19:00 PM 11.4016 0.6529 North  Level Estimated
Wed 06:20:00 PM 11.5130 0.6690 North  Level Estimated
Wed 06:21:00 PM 11.6245 0.6850 North  Level Estimated
Wed 06:22:00 PM 11.7359 0.7011 North  Level Estimated
Wed 06:23:00 PM 11.8474 0.7172 North  Level Estimated
Wed 06:24:00 PM 11.9588 0.7333 North  Level Estimated
Wed 06:25:00 PM 12.0703 0.7494 North  Level Estimated
Wed 06:26:00 PM 12.1817 0.7655 North  Level Estimated
Wed 06:27:00 PM 12.2932 0.7816 North  Level Estimated
Wed 06:28:00 PM 12.4046 0.7978 North  Level Estimated
Wed 06:29:00 PM 12.5160 0.8139 North  Level Estimated
Wed 06:30:00 PM 12.6275 0.8301 North  Level Estimated
Wed 06:31:00 PM 12.7389 0.8463 North  Level Estimated
Wed 06:32:00 PM 12.8504 0.8625 North  Level Estimated
Wed 06:33:00 PM 12.9618 0.8787 North  Level Estimated
Wed 06:34:00 PM 13.0732 0.8949 North  Level Estimated
Wed 06:35:00 PM 13.1847 0.9112 North  Level Estimated
Wed 06:36:00 PM 13.2961 0.9274 North  Level Estimated
Wed 06:37:00 PM 13.4075 0.9437 North  Level Estimated
Wed 06:38:00 PM 13.5190 0.9600 North  Level Estimated
Wed 06:39:00 PM 13.6304 0.9763 North  Level Estimated
Wed 06:40:00 PM 13.7418 0.9926 North  Level Estimated
Wed 06:41:00 PM 13.8533 1.0089 North  Level Estimated
Wed 06:42:00 PM 13.9647 1.0253 North  Level Estimated
Wed 06:43:00 PM 14.0761 1.0417 North  Level Estimated
Wed 06:44:00 PM 14.1875 1.0580 North  Level Estimated
Wed 06:45:00 PM 14.2990 1.0744 North  Level Estimated
Wed 06:46:00 PM 14.4104 1.0908 North  Level Estimated
Wed 06:47:00 PM 14.5218 1.1073 North  Level Estimated
Wed 06:48:00 PM 14.6332 1.1237 North  Level Estimated
Wed 06:49:00 PM 14.7447 1.1402 North  Level Estimated
Wed 06:50:00 PM 14.8561 1.1567 North  Level Estimated
Wed 06:51:00 PM 14.9675 1.1732 North  Level Estimated
Wed 06:52:00 PM 15.0789 1.1897 North  Level Estimated
Wed 06:53:00 PM 15.1903 1.2062 North  Level Estimated
Wed 06:54:00 PM 15.3018 1.2228 North  Level Estimated
Wed 06:55:00 PM 15.4132 1.2393 North  Level Estimated
Wed 06:56:00 PM 15.5246 1.2559 North  Level Estimated
Wed 06:57:00 PM 15.6360 1.2725 North  Level Estimated
Wed 06:58:00 PM 15.7474 1.2891 North  Level Estimated
Wed 06:59:00 PM 15.8588 1.3058 North  Level Estimated
Wed 07:00:00 PM 15.9702 1.3224 North  Level Estimated
Wed 07:01:00 PM 16.0816 1.3391 North  Level Estimated
Wed 07:02:00 PM 16.1930 1.3558 North  Level Estimated
Wed 07:03:00 PM 16.3044 1.3725 North  Level Estimated
Wed 07:04:00 PM 16.4158 1.3893 North  Level Estimated
Wed 07:05:00 PM 16.5272 1.4060 North  Level Estimated
Wed 07:06:00 PM 16.6386 1.4228 North  Level Estimated
Wed 07:07:00 PM 16.7500 1.4396 North  Level Estimated
Wed 07:08:00 PM 16.8614 1.4564 North  Level Estimated
Wed 07:09:00 PM 16.9728 1.4732 North  Level Estimated
Wed 07:10:00 PM 17.0842 1.4901 North  Level Estimated
Wed 07:11:00 PM 17.1956 1.5069 North  Level Estimated
Wed 07:12:00 PM 17.3070 1.5238 North  Level Estimated
Wed 07:13:00 PM 17.4184 1.5407 North  Level Estimated
Wed 07:14:00 PM 17.5298 1.5577 North  Level Estimated
Wed 07:15:00 PM 17.6412 1.5746 North  Level Estimated
Wed 07:16:00 PM 17.7526 1.5916 North  Level Estimated
Wed 07:17:00 PM 17.8639 1.6086 North  Level Estimated
Wed 07:18:00 PM 17.9753 1.6256 North  Level Estimated
Wed 07:19:00 PM 18.0867 1.6426 North  Level Estimated
Wed 07:20:00 PM 18.1981 1.6597 North  Level Estimated
Wed 07:21:00 PM 18.3095 1.6768 North  Level Estimated
Wed 07:22:00 PM 18.4208 1.6939 North  Level Estimated
Wed 07:23:00 PM 18.5322 1.7110 North  Level Estimated
Wed 07:24:00 PM 18.6436 1.7282 North  Level Estimated
Wed 07:25:00 PM 18.7549 1.7453 North  Level Estimated
Wed 07:26:00 PM 18.8663 1.7625 North  Level Estimated
Wed 07:27:00 PM 18.9777 1.7797 North  Level Estimated
Wed 07:28:00 PM 19.0891 1.7970 North  Level Estimated
Wed 07:29:00 PM 19.2004 1.8142 North  Level Estimated
Wed 07:30:00 PM 19.3118 1.8315 North  Level Estimated
Wed 07:31:00 PM 19.4231 1.8488 North  Level Estimated
Wed 07:32:00 PM 19.5345 1.8662 North  Level Estimated
Wed 07:33:00 PM 19.6459 1.8835 North  Level Estimated
Wed 07:34:00 PM 19.7572 1.9009 North  Level Estimated
Wed 07:35:00 PM 19.8686 1.9183 North  Level Estimated
Wed 07:36:00 PM 19.9799 1.9358 North  Level Estimated
Wed 07:37:00 PM 20.0913 1.9532 North  Level Estimated
Wed 07:38:00 PM 20.2026 1.9707 North  Level Estimated
Wed 07:39:00 PM 20.3140 1.9882 North  Level Estimated
Wed 07:40:00 PM 20.4253 2.0057 North  Level Estimated
Wed 07:41:00 PM 20.5367 2.0233 North  Level Estimated
Wed 07:42:00 PM 20.6480 2.0408 North  Level Estimated
Wed 07:43:00 PM 20.7594 2.0584 North  Level Estimated
Wed 07:44:00 PM 20.8707 2.0761 North  Level Estimated
Wed 07:45:00 PM 20.9820 2.0937 North  Level Estimated
Wed 07:46:00 PM 21.0934 2.1114 North  Level Estimated
Wed 07:47:00 PM 21.2047 2.1291 North  Level Estimated
Wed 07:48:00 PM 21.3160 2.1469 North  Level Estimated
Wed 07:49:00 PM 21.4274 2.1646 North  Level Estimated
Wed 07:50:00 PM 21.5387 2.1824 North  Level Estimated
Wed 07:51:00 PM 21.6500 2.2002 North  Level Estimated
Wed 07:52:00 PM 21.7614 2.2181 North  Level Estimated
Wed 07:53:00 PM 21.8727 2.2360 North  Level Estimated
Wed 07:54:00 PM 21.9840 2.2539 North  Level Estimated
Wed 07:55:00 PM 22.0953 2.2718 North  Level Estimated
Wed 07:56:00 PM 22.2066 2.2898 North  Level Estimated
Wed 07:57:00 PM 22.3179 2.3077 North  Level Estimated
Wed 07:58:00 PM 22.4293 2.3258 North  Level Estimated
Wed 07:59:00 PM 22.5406 2.3438 North  Level Estimated
Wed 08:00:00 PM 22.6519 2.3619 North  Level Estimated
Wed 08:01:00 PM 22.7632 2.3800 North  Level Estimated
Wed 08:02:00 PM 22.8745 2.3981 North  Level Estimated
Wed 08:03:00 PM 22.9858 2.4163 North  Level Estimated
Wed 08:04:00 PM 23.0971 2.4344 North  Level Estimated
Wed 08:05:00 PM 23.2084 2.4527 North  Level Estimated
Wed 08:06:00 PM 23.3197 2.4709 North  Level Estimated
Wed 08:07:00 PM 23.4310 2.4892 North  Level Estimated
Wed 08:08:00 PM 23.5423 2.5075 North  Level Estimated
Wed 08:09:00 PM 23.6536 2.5259 North  Level Estimated
Wed 08:10:00 PM 23.7649 2.5442 North  Level Estimated
Wed 08:11:00 PM 23.8762 2.5626 North  Level Estimated
Wed 08:12:00 PM 23.9874 2.5811 North  Level Estimated
Wed 08:13:00 PM 24.0987 2.5996 North  Level Estimated
Wed 08:14:00 PM 24.2100 2.6181 North  Level Estimated
Wed 08:15:00 PM 24.3213 2.6366 North  Level Estimated
Wed 08:16:00 PM 24.4325 2.6552 North  Level Estimated
Wed 08:17:00 PM 24.5438 2.6738 North  Level Estimated
Wed 08:18:00 PM 24.6551 2.6924 North  Level Estimated
Wed 08:19:00 PM 24.7663 2.7111 North  Level Estimated
Wed 08:20:00 PM 24.8776 2.7298 North  Level Estimated
Wed 08:21:00 PM 24.9889 2.7485 North  Level Estimated
Wed 08:22:00 PM 25.1001 2.7673 North  Level Estimated
Wed 08:23:00 PM 25.2114 2.7861 North  Level Estimated
Wed 08:24:00 PM 25.3227 2.8049 North  Level Estimated
Wed 08:25:00 PM 25.4339 2.8238 North  Level Estimated
Wed 08:26:00 PM 25.5452 2.8427 North  Level Estimated
Wed 08:27:00 PM 25.6564 2.8616 North  Level Estimated
Wed 08:28:00 PM 25.7677 2.8806 North  Level Estimated
Wed 08:29:00 PM 25.8789 2.8996 North  Level Estimated
Wed 08:30:00 PM 25.9901 2.9187 North  Level Estimated
Wed 08:31:00 PM 26.1014 2.9378 North  Level Estimated
Wed 08:32:00 PM 26.2126 2.9569 North  Level Estimated
Wed 08:33:00 PM 26.3239 2.9760 North  Level Estimated
Wed 08:34:00 PM 26.4351 2.9952 North  Level Estimated
Wed 08:35:00 PM 26.5463 3.0145 North  Level Estimated
Wed 08:36:00 PM 26.6575 3.0337 North  Level Estimated
Wed 08:37:00 PM 26.7688 3.0530 North  Level Estimated
Wed 08:38:00 PM 26.8800 3.0724 North  Level Estimated
Wed 08:39:00 PM 26.9912 3.0918 North  Level Estimated
Wed 08:40:00 PM 27.1024 3.1112 North  Level Estimated
Wed 08:41:00 PM 27.2136 3.1306 North  Level Estimated
Wed 08:42:00 PM 27.3248 3.1501 North  Level Estimated
Wed 08:43:00 PM 27.4361 3.1697 North  Level Estimated
Wed 08:44:00 PM 27.5473 3.1893 North  Level Estimated
Wed 08:45:00 PM 27.6585 3.2089 North  Level Estimated
Wed 08:46:00 PM 27.7697 3.2285 North  Level Estimated
Wed 08:47:00 PM 27.8809 3.2482 North  Level Estimated
Wed 08:48:00 PM 27.9921 3.2680 North  Level Estimated
Wed 08:49:00 PM 28.1032 3.2878 North  Level Estimated
Wed 08:50:00 PM 28.2144 3.3076 North  Level Estimated
Wed 08:51:00 PM 28.3256 3.3274 North  Level Estimated
Wed 08:52:00 PM 28.4368 3.3473 North  Level Estimated
Wed 08:53:00 PM 28.5480 3.3673 North  Level Estimated
Wed 08:54:00 PM 28.6592 3.3873 North  Level Estimated
Wed 08:55:00 PM 28.7703 3.4073 North  Level Estimated
Wed 08:56:00 PM 28.8815 3.4274 North  Level Estimated
Wed 08:57:00 PM 28.9927 3.4475 North  Level Estimated
Wed 08:58:00 PM 29.1038 3.4676 North  Level Estimated
Wed 08:59:00 PM 29.2150 3.4878 North  Level Estimated
Wed 09:00:00 PM 29.3262 3.5081 North  Level Estimated
Wed 09:01:00 PM 29.4373 3.5284 North  Level Estimated
Wed 09:02:00 PM 29.5485 3.5487 North  Level Estimated
Wed 09:03:00 PM 29.6596 3.5691 North  Level Estimated
Wed 09:04:00 PM 29.7708 3.5895 North  Level Estimated
Wed 09:05:00 PM 29.8819 3.6100 North  Level Estimated
Wed 09:06:00 PM 29.9930 3.6305 North  Level Estimated
Wed 09:07:00 PM 30.1042 3.6511 North  Level Estimated
Wed 09:08:00 PM 30.2153 3.6717 North  Level Estimated
Wed 09:09:00 PM 30.3264 3.6923 North  Level Estimated
Wed 09:10:00 PM 30.4376 3.7130 North  Level Estimated
Wed 09:11:00 PM 30.5487 3.7338 North  Level Estimated
Wed 09:12:00 PM 30.6598 3.7546 North  Level Estimated
Wed 09:13:00 PM 30.7709 3.7754 North  Level Estimated
Wed 09:14:00 PM 30.8820 3.7963 North  Level Estimated
Wed 09:15:00 PM 30.9932 3.8172 North  Level Estimated
Wed 09:16:00 PM 31.1043 3.8382 North  Level Estimated
Wed 09:17:00 PM 31.2154 3.8593 North  Level Estimated
Wed 09:18:00 PM 31.3265 3.8804 North  Level Estimated
Wed 09:19:00 PM 31.4376 3.9015 North  Level Estimated
Wed 09:20:00 PM 31.5487 3.9227 North  Level Estimated
Wed 09:21:00 PM 31.6597 3.9439 North  Level Estimated
Wed 09:22:00 PM 31.7708 3.9652 North  Level Estimated
Wed 09:23:00 PM 31.8819 3.9866 North  Level Estimated
Wed 09:24:00 PM 31.9930 4.0079 North  Level Estimated
Wed 09:25:00 PM 32.1041 4.0294 North  Level Estimated
Wed 09:26:00 PM 32.2151 4.0509 North  Level Estimated
Wed 09:27:00 PM 32.3262 4.0724 North  Level Estimated
Wed 09:28:00 PM 32.4373 4.0940 North  Level Estimated
Wed 09:29:00 PM 32.5483 4.1157 North  Level Estimated
Wed 09:30:00 PM 32.6594 4.1374 North  Level Estimated
Wed 09:31:00 PM 32.7704 4.1592 North  Level Estimated
Wed 09:32:00 PM 32.8815 4.1810 North  Level Estimated
Wed 09:33:00 PM 32.9925 4.2028 North  Level Estimated
Wed 09:34:00 PM 33.1036 4.2248 North  Level Estimated
Wed 09:35:00 PM 33.2146 4.2467 North  Level Estimated
Wed 09:36:00 PM 33.3256 4.2688 North  Level Estimated
Wed 09:37:00 PM 33.4367 4.2909 North  Level Estimated
Wed 09:38:00 PM 33.5477 4.3130 North  Level Estimated
Wed 09:39:00 PM 33.6587 4.3352 North  Level Estimated
Wed 09:40:00 PM 33.7697 4.3575 North  Level Estimated
Wed 09:41:00 PM 33.8808 4.3798 North  Level Estimated
Wed 09:42:00 PM 33.9918 4.4022 North  Level Estimated
Wed 09:43:00 PM 34.1028 4.4246 10° North  Level Estimated
Wed 09:44:00 PM 34.2138 4.4471 10° North  Level Estimated
Wed 09:45:00 PM 34.3248 4.4697 10° North  Level Estimated
Wed 09:46:00 PM 34.4358 4.4923 10° North  Level Estimated
Wed 09:47:00 PM 34.5468 4.5150 10° North  Level Estimated
Wed 09:48:00 PM 34.6577 4.5377 10° North  Level Estimated
Wed 09:49:00 PM 34.7687 4.5605 10° North  Level Estimated
Wed 09:50:00 PM 34.8797 4.5834 10° North  Level Estimated
Wed 09:51:00 PM 34.9907 4.6063 10° North  Level Estimated
Wed 09:52:00 PM 35.1017 4.6293 10° North  Level Estimated
Wed 09:53:00 PM 35.2126 4.6523 10° North  Level Estimated
Wed 09:54:00 PM 35.3236 4.6755 10° North  Level Estimated
Wed 09:55:00 PM 35.4345 4.6986 10° North  Level Estimated
Wed 09:56:00 PM 35.5455 4.7219 10° North  Level Estimated
Wed 09:57:00 PM 35.6564 4.7452 10° North  Level Estimated
Wed 09:58:00 PM 35.7674 4.7685 10° North  Level Estimated
Wed 09:59:00 PM 35.8783 4.7920 10° North  Level Estimated
Wed 10:00:00 PM 35.9892 4.8155 10° North  Level Estimated
Wed 10:01:00 PM 36.1002 4.8390 10° North  Level Estimated
Wed 10:02:00 PM 36.2111 4.8627 10° North  Level Estimated
Wed 10:03:00 PM 36.3220 4.8864 10° North  Level Estimated
Wed 10:04:00 PM 36.4329 4.9101 10° North  Level Estimated
Wed 10:05:00 PM 36.5438 4.9340 10° North  Level Estimated
Wed 10:06:00 PM 36.6547 4.9579 10° North  Level Estimated
Wed 10:07:00 PM 36.7656 4.9818 10° North  Level Estimated
Wed 10:08:00 PM 36.8765 5.0059 10° North  Level Estimated
Wed 10:09:00 PM 36.9874 5.0300 10° North  Level Estimated
Wed 10:10:00 PM 37.0983 5.0542 10° North  Level Estimated
Wed 10:11:00 PM 37.2092 5.0784 10° North  Level Estimated
Wed 10:12:00 PM 37.3201 5.1027 10° North  Level Estimated
Wed 10:13:00 PM 37.4310 5.1271 10° North  Level Estimated
Wed 10:14:00 PM 37.5418 5.1516 10° North  Level Estimated
Wed 10:15:00 PM 37.6527 5.1761 10° North  Level Estimated
Wed 10:16:00 PM 37.7635 5.2007 10° North  Level Estimated
Wed 10:17:00 PM 37.8744 5.2254 10° North  Level Estimated
Wed 10:18:00 PM 37.9852 5.2502 10° North  Level Estimated
Wed 10:19:00 PM 38.0961 5.2750 10° North  Level Estimated
Wed 10:20:00 PM 38.2069 5.2999 10° North  Level Estimated
Wed 10:21:00 PM 38.3177 5.3249 10° North  Level Estimated
Wed 10:22:00 PM 38.4286 5.3500 10° North  Level Estimated
Wed 10:23:00 PM 38.5394 5.3751 10° North  Level Estimated
Wed 10:24:00 PM 38.6502 5.4004 10° North  Level Estimated
Wed 10:25:00 PM 38.7610 5.4257 10° North  Level Estimated
Wed 10:26:00 PM 38.8718 5.4510 10° North  Level Estimated
Wed 10:27:00 PM 38.9826 5.4765 10° North  Level Estimated
Wed 10:28:00 PM 39.0934 5.5020 10° North  Level Estimated
Wed 10:29:00 PM 39.2042 5.5276 10° North  Level Estimated
Wed 10:30:00 PM 39.3150 5.5533 10° North  Level Estimated
Wed 10:31:00 PM 39.4257 5.5791 10° North  Level Estimated
Wed 10:32:00 PM 39.5365 5.6050 10° North  Level Estimated
Wed 10:33:00 PM 39.6473 5.6309 10° North  Level Estimated
Wed 10:34:00 PM 39.7580 5.6570 10° North  Level Estimated
Wed 10:35:00 PM 39.8688 5.6831 10° North  Level Estimated
Wed 10:36:00 PM 39.9795 5.7093 10° North  Level Estimated
Wed 10:37:00 PM 40.0903 5.7355 10° North  Level Estimated
Wed 10:38:00 PM 40.2010 5.7619 10° North  Level Estimated
Wed 10:39:00 PM 40.3117 5.7884 10° North  Level Estimated
Wed 10:40:00 PM 40.4225 5.8149 10° North  Level Estimated
Wed 10:41:00 PM 40.5381 5.8427 10° North  Level Estimated
Wed 10:42:00 PM 40.6537 5.8706 10° North  Level Estimated
Wed 10:43:00 PM 40.7693 5.8986 10° North  Level Estimated
Wed 10:44:00 PM 40.8849 5.9267 10° North  Level Estimated
Wed 10:45:00 PM 41.0005 5.9549 10° North  Level Estimated
Wed 10:46:00 PM 41.1161 5.9832 10° North  Level Estimated
Wed 10:47:00 PM 41.2317 6.0116 10° North  Level Estimated
Wed 10:48:00 PM 41.3473 6.0401 10° North  Level Estimated
Wed 10:49:00 PM 41.4629 6.0687 11° North  Level Estimated
Wed 10:50:00 PM 41.5784 6.0974 11° North  Level Estimated
Wed 10:51:00 PM 41.6940 6.1262 11° North  Level Estimated
Wed 10:52:00 PM 41.8096 6.1551 11° North  Level Estimated
Wed 10:53:00 PM 41.9251 6.1841 11° North  Level Estimated
Wed 10:54:00 PM 42.0406 6.2133 11° North  Level Estimated
Wed 10:55:00 PM 42.1562 6.2425 11° North  Level Estimated
Wed 10:56:00 PM 42.2717 6.2718 11° North  Level Estimated
Wed 10:57:00 PM 42.3872 6.3012 11° North  Level Estimated
Wed 10:58:00 PM 42.5027 6.3308 11° North  Level Estimated
Wed 10:59:00 PM 42.6182 6.3604 11° North  Level Estimated
Wed 11:00:00 PM 42.7337 6.3902 11° North  Level Estimated
Wed 11:01:00 PM 42.8492 6.4201 11° North  Level Estimated
Wed 11:02:00 PM 42.9647 6.4501 11° North  Level Estimated
Wed 11:03:00 PM 43.0802 6.4802 11° North  Level Estimated
Wed 11:04:00 PM 43.1956 6.5104 11° North  Level Estimated
Wed 11:05:00 PM 43.3111 6.5407 11° North  Level Estimated
Wed 11:06:00 PM 43.4265 6.5712 11° North  Level Estimated
Wed 11:07:00 PM 43.5420 6.6017 11° North  Level Estimated
Wed 11:08:00 PM 43.6574 6.6324 11° North  Level Estimated
Wed 11:09:00 PM 43.7728 6.6632 11° North  Level Estimated
Wed 11:10:00 PM 43.8882 6.6941 11° North  Level Estimated
Wed 11:11:00 PM 44.0036 6.7252 11° North  Level Estimated
Wed 11:12:00 PM 44.1190 6.7564 11° North  Level Estimated
Wed 11:13:00 PM 44.2344 6.7876 11° North  Level Estimated
Wed 11:14:00 PM 44.3498 6.8190 11° North  Level Estimated
Wed 11:15:00 PM 44.4652 6.8506 11° North  Level Estimated
Wed 11:16:00 PM 44.5805 6.8822 11° North  Level Estimated
Wed 11:17:00 PM 44.6959 6.9140 11° North  Level Estimated
Wed 11:18:00 PM 44.8112 6.9459 11° North  Level Estimated
Wed 11:19:00 PM 44.9266 6.9779 11° North  Level Estimated
Wed 11:20:00 PM 45.0419 7.0101 11° North  Level Estimated
Wed 11:21:00 PM 45.1572 7.0424 11° North  Level Estimated
Wed 11:22:00 PM 45.2725 7.0748 11° North  Level Estimated
Wed 11:23:00 PM 45.3878 7.1073 11° North  Level Estimated
Wed 11:24:00 PM 45.5031 7.1400 11° North  Level Estimated
Wed 11:25:00 PM 45.6184 7.1729 11° North  Level Estimated
Wed 11:26:00 PM 45.7337 7.2058 11° North  Level Estimated
Wed 11:27:00 PM 45.8489 7.2389 11° North  Level Estimated
Wed 11:28:00 PM 45.9642 7.2721 11° North  Level Estimated
Wed 11:29:00 PM 46.0794 7.3055 11° North  Level Estimated
Wed 11:30:00 PM 46.1946 7.3390 11° North  Level Estimated
Wed 11:31:00 PM 46.3099 7.3727 11° North  Level Estimated
Wed 11:32:00 PM 46.4251 7.4064 11° North  Level Estimated
Wed 11:33:00 PM 46.5403 7.4404 11° North  Level Estimated
Wed 11:34:00 PM 46.6555 7.4745 11° North  Level Estimated
Wed 11:35:00 PM 46.7706 7.5087 12° North  Level Estimated
Wed 11:36:00 PM 46.8858 7.5430 12° North  Level Estimated
Wed 11:37:00 PM 47.0010 7.5776 12° North  Level Estimated
Wed 11:38:00 PM 47.1161 7.6122 12° North  Level Estimated
Wed 11:39:00 PM 47.2313 7.6471 12° North  Level Estimated
Wed 11:40:00 PM 47.3464 7.6820 12° North  Level Estimated
Wed 11:41:00 PM 47.4615 7.7172 12° North  Level Estimated
Wed 11:42:00 PM 47.5766 7.7524 12° North  Level Estimated
Wed 11:43:00 PM 47.6917 7.7878 12° North  Level Estimated
Wed 11:44:00 PM 47.8068 7.8234 12° North  Level Estimated
Wed 11:45:00 PM 47.9219 7.8592 12° North  Level Estimated
Wed 11:46:00 PM 48.0370 7.8951 12° North  Level Estimated
Wed 11:47:00 PM 48.1520 7.9311 12° North  Level Estimated
Wed 11:48:00 PM 48.2671 7.9674 12° North  Level Estimated
Wed 11:49:00 PM 48.3821 8.0038 12° North  Level Estimated
Wed 11:50:00 PM 48.4971 8.0403 12° North  Level Estimated
Wed 11:51:00 PM 48.6121 8.0771 12° North  Level Estimated
Wed 11:52:00 PM 48.7271 8.1139 12° North  Level Estimated
Wed 11:53:00 PM 48.8421 8.1510 12° North  Level Estimated
Wed 11:54:00 PM 48.9571 8.1882 12° North  Level Estimated
Wed 11:55:00 PM 49.0720 8.2256 12° North  Level Estimated
Wed 11:56:00 PM 49.1870 8.2632 12° North  Level Estimated
Wed 11:57:00 PM 49.3019 8.3010 12° North  Level Estimated
Wed 11:58:00 PM 49.4168 8.3389 12° North  Level Estimated
Wed 11:59:00 PM 49.5317 8.3770 12° North  Level Estimated
Thu 12:00:00 AM 49.6466 8.4153 12° North  Level Estimated
Thu 12:01:00 AM 49.7615 8.4537 12° North  Level Estimated
Thu 12:02:00 AM 49.8764 8.4924 12° North  Level Estimated
Thu 12:03:00 AM 49.9913 8.5312 12° North  Level Estimated
Thu 12:04:00 AM 50.0264 8.5431 12° North  Level Estimated
Thu 12:05:00 AM 50.0264 8.5431 73° East  Level Estimated
Thu 12:06:00 AM 50.0264 8.5431 73° East  Level Estimated

Login

Don't have an account? Register now (free) for customized features, flight alerts, and more!